Time;durP1;ratioP1;P1;durP2;ratioP2;P2;SDS_P1;SDS_P2;PMS_P1;PMS_P2;Temp;Humidity;BMP_temperature;BMP_pressure;BME280_temperature;BME280_humidity;BME280_pressure;Samples;Min_cycle;Max_cycle;Signal;HPM_P1;HPM_P2
2023/09/14 00:02:40;;;;;;;7.93;5.18;;;;;;;25.16;59.11;100823.66;5123947;28;20058;-80
2023/09/14 00:05:34;;;;;;;11.70;6.32;;;;;;;25.15;58.85;100825.66;5121406;28;20062;-80
2023/09/14 00:08:27;;;;;;;;;;;;;;;25.16;58.91;100832.81;5127650;28;20046;-80
2023/09/14 00:11:20;;;;;;;6.28;5.15;;;;;;;25.09;58.89;100824.53;5126614;28;19912;-80
2023/09/14 00:14:14;;;;;;;7.30;5.50;;;;;;;25.08;59.19;100818.19;5125036;28;20051;-80
2023/09/14 00:17:09;;;;;;;11.40;7.18;;;;;;;25.09;58.79;100819.72;5128519;28;20051;-79
2023/09/14 00:20:05;;;;;;;8.40;5.38;;;;;;;25.07;59.21;100826.94;5124872;28;20054;-80
2023/09/14 00:23:01;;;;;;;10.07;6.80;;;;;;;25.05;59.29;100829.31;5123402;28;20051;-80
2023/09/14 00:25:56;;;;;;;9.70;8.05;;;;;;;25.02;59.41;100833.72;5122880;28;20507;-80
2023/09/14 00:28:50;;;;;;;8.90;7.57;;;;;;;25.01;59.74;100839.69;5123428;28;20047;-79
2023/09/14 00:31:45;;;;;;;10.18;6.40;;;;;;;24.97;59.82;100830.59;5124047;28;20062;-80
2023/09/14 00:34:40;;;;;;;10.85;7.78;;;;;;;24.96;59.72;100831.78;5125255;28;20050;-80
2023/09/14 00:37:34;;;;;;;12.27;7.45;;;;;;;24.95;59.90;100827.41;5122313;28;20418;-80
2023/09/14 00:40:29;;;;;;;8.30;7.50;;;;;;;24.92;59.85;100836.59;5121631;28;20422;-80
2023/09/14 00:43:21;;;;;;;;;;;;;;;24.92;59.46;100837.41;5122321;28;20039;-79
2023/09/14 00:46:16;;;;;;;9.73;7.93;;;;;;;24.87;59.81;100840.63;5121194;28;20370;-80
2023/09/14 00:49:10;;;;;;;8.30;6.53;;;;;;;24.86;60.04;100838.19;5124835;28;20063;-80
2023/09/14 00:52:00;;;;;;;12.30;8.75;;;;;;;24.85;60.22;100839.41;5121819;28;20043;-80
2023/09/14 00:54:55;;;;;;;13.35;7.43;;;;;;;24.83;59.87;100833.47;5122547;28;20538;-80
2023/09/14 00:57:49;;;;;;;9.73;8.05;;;;;;;24.81;59.82;100836.66;5122813;28;20052;-80
2023/09/14 01:00:44;;;;;;;9.27;7.00;;;;;;;24.80;60.05;100835.06;5122663;28;20051;-80
2023/09/14 01:03:38;;;;;;;12.93;8.35;;;;;;;24.77;60.19;100830.31;5122724;28;20054;-80
2023/09/14 01:06:31;;;;;;;;;;;;;;;24.80;59.93;100834.28;5123391;28;20046;-80
2023/09/14 01:09:23;;;;;;;14.48;10.10;;;;;;;24.79;59.80;100825.13;5128043;28;19907;-80
2023/09/14 01:12:19;;;;;;;14.48;9.07;;;;;;;24.78;59.92;100828.34;5121958;28;20043;-80
2023/09/14 01:15:38;;;;;;;13.02;8.88;;;;;;;24.77;59.82;100826.75;5126396;28;20047;-80
2023/09/14 01:18:47;;;;;;;13.38;10.30;;;;;;;24.77;59.68;100835.09;5122938;28;20152;-80
2023/09/14 01:22:28;;;;;;;16.52;12.00;;;;;;;24.74;60.09;100833.16;5121841;28;20040;-80
2023/09/14 01:25:26;;;;;;;13.90;10.48;;;;;;;24.69;60.03;100837.91;5089817;28;20478;-80
2023/09/14 01:28:22;;;;;;;11.48;9.68;;;;;;;24.67;60.13;100842.31;5124775;28;20039;-80
2023/09/14 01:31:17;;;;;;;13.32;10.30;;;;;;;24.65;60.14;100844.72;5123118;28;20059;-80
2023/09/14 01:34:09;;;;;;;13.15;9.35;;;;;;;24.60;60.13;100828.47;5125734;28;20039;-80
2023/09/14 01:37:08;;;;;;;14.65;10.85;;;;;;;24.58;60.65;100833.66;5123763;28;20039;-80
2023/09/14 01:40:04;;;;;;;12.15;8.60;;;;;;;24.55;60.78;100829.69;5120717;28;20043;-79
2023/09/14 01:43:00;;;;;;;13.98;9.52;;;;;;;24.55;60.86;100826.91;5123936;28;20042;-80
2023/09/14 01:45:55;;;;;;;16.25;10.18;;;;;;;24.54;60.88;100822.53;5122634;28;20741;-80
2023/09/14 01:48:47;;;;;;;19.52;10.75;;;;;;;24.54;61.11;100832.84;5125094;28;20031;-80
2023/09/14 01:51:42;;;;;;;11.45;9.63;;;;;;;24.51;60.81;100814.22;5120920;28;20039;-80
2023/09/14 01:54:34;;;;;;;12.88;9.52;;;;;;;24.48;61.10;100810.25;5120554;28;20043;-80
2023/09/14 01:57:29;;;;;;;14.07;11.00;;;;;;;24.47;61.05;100813.47;5121689;28;20517;-80
2023/09/14 02:00:21;;;;;;;12.48;10.80;;;;;;;24.45;60.82;100811.09;5121686;28;20036;-80
2023/09/14 02:03:16;;;;;;;14.93;11.23;;;;;;;24.44;61.26;100819.81;5126472;28;20509;-78
2023/09/14 02:06:08;;;;;;;;;;;;;;;24.44;60.87;100814.25;5124066;28;20035;-79
2023/09/14 02:09:00;;;;;;;19.02;10.75;;;;;;;24.39;61.14;100809.91;5120466;28;20374;-79
2023/09/14 02:11:55;;;;;;;14.25;11.00;;;;;;;24.36;61.15;100805.19;5123580;28;20039;-80
2023/09/14 02:14:49;;;;;;;14.05;12.25;;;;;;;24.35;61.15;100809.16;5120889;28;20043;-80
2023/09/14 02:17:44;;;;;;;16.17;12.90;;;;;;;24.34;61.10;100813.13;5125388;28;20040;-80
2023/09/14 02:20:38;;;;;;;16.00;10.98;;;;;;;24.33;61.24;100803.19;5121290;28;20044;-80
2023/09/14 02:23:33;;;;;;;14.45;11.60;;;;;;;24.31;61.33;100804.81;5121823;28;20032;-80
2023/09/14 02:26:27;;;;;;;15.02;10.57;;;;;;;24.29;61.37;100808.78;5120809;28;20043;-80
2023/09/14 02:29:20;;;;;;;;;;;;;;;24.28;61.30;100809.19;5122332;28;20039;-79
2023/09/14 02:32:14;;;;;;;17.45;13.77;;;;;;;24.25;61.37;100805.25;5120823;28;19912;-80
2023/09/14 02:35:10;;;;;;;17.98;12.07;;;;;;;24.23;61.38;100813.19;5123959;28;20039;-80
2023/09/14 02:38:07;;;;;;;23.77;12.85;;;;;;;24.22;61.27;100817.19;5121334;28;20036;-80
2023/09/14 02:41:02;;;;;;;17.42;14.10;;;;;;;24.20;61.10;100813.22;5123485;28;20040;-80
2023/09/14 02:43:57;;;;;;;15.57;13.52;;;;;;;24.19;61.02;100814.41;5121010;28;20035;-79
2023/09/14 02:46:51;;;;;;;21.00;12.65;;;;;;;24.17;61.21;100811.25;5121023;28;20403;-80
2023/09/14 02:49:46;;;;;;;13.82;12.25;;;;;;;24.15;61.03;100805.28;5120083;28;20490;-80
2023/09/14 02:52:40;;;;;;;17.38;11.85;;;;;;;24.14;61.46;100814.81;5120240;28;20507;-79
2023/09/14 02:55:38;;;;;;;16.75;11.73;;;;;;;24.13;61.29;100813.22;5123996;28;20044;-80
2023/09/14 02:58:33;;;;;;;14.07;12.43;;;;;;;24.12;61.31;100811.66;5115922;28;20040;-79
2023/09/14 03:01:28;;;;;;;14.27;11.02;;;;;;;24.10;61.52;100809.28;5101903;28;20498;-80
2023/09/14 03:04:22;;;;;;;19.98;13.70;;;;;;;24.09;61.41;100809.66;5101833;28;20032;-80
2023/09/14 03:07:17;;;;;;;22.60;16.20;;;;;;;24.05;61.37;100811.69;5113639;28;20048;-80
2023/09/14 03:10:12;;;;;;;21.45;13.98;;;;;;;24.01;61.39;100800.59;5102979;28;20040;-79
2023/09/14 03:13:07;;;;;;;15.55;13.25;;;;;;;23.99;61.68;100805.75;5101278;28;20044;-79
2023/09/14 03:16:02;;;;;;;20.88;13.27;;;;;;;23.98;61.73;100806.94;5104074;28;20032;-80
2023/09/14 03:18:57;;;;;;;20.38;14.55;;;;;;;23.96;61.59;100809.34;5103069;28;20040;-80
2023/09/14 03:21:51;;;;;;;16.90;14.68;;;;;;;23.94;61.39;100808.94;5099825;28;20036;-79
2023/09/14 03:24:44;;;;;;;16.98;12.02;;;;;;;23.93;61.43;100804.59;5103809;28;20036;-80
2023/09/14 03:27:38;;;;;;;21.25;14.43;;;;;;;23.91;61.69;100811.75;5101158;28;20040;-80
2023/09/14 03:30:33;;;;;;;19.35;12.70;;;;;;;23.88;61.50;100814.13;5118802;28;20048;-80
2023/09/14 03:33:28;;;;;;;16.95;13.65;;;;;;;23.85;61.47;100803.03;5102032;28;20036;-79
2023/09/14 03:36:21;;;;;;;18.77;13.73;;;;;;;23.85;61.87;100814.16;5098981;28;20040;-80
2023/09/14 03:39:15;;;;;;;20.38;13.35;;;;;;;23.84;61.56;100812.56;5102433;28;20044;-80
2023/09/14 03:42:07;;;;;;;19.20;12.43;;;;;;;23.82;61.69;100804.63;5099232;28;20043;-80
2023/09/14 03:44:59;;;;;;;18.05;12.70;;;;;;;23.81;61.57;100803.06;5102692;28;20032;-79
2023/09/14 03:47:55;;;;;;;16.02;12.60;;;;;;;23.80;61.70;100812.59;5105846;28;20044;-79
2023/09/14 03:50:50;;;;;;;17.42;11.93;;;;;;;23.80;61.54;100801.47;5104860;28;20036;-80
2023/09/14 03:53:44;;;;;;;22.63;13.45;;;;;;;23.79;61.79;100807.44;5121901;28;20048;-79
2023/09/14 03:56:39;;;;;;;18.80;14.50;;;;;;;23.76;61.65;100806.25;5105098;28;20062;-80
2023/09/14 03:59:33;;;;;;;17.55;13.10;;;;;;;23.75;61.56;100818.56;5119738;28;20044;-80
2023/09/14 04:02:28;;;;;;;17.88;12.02;;;;;;;23.71;61.80;100817.78;5118247;28;20494;-79
2023/09/14 04:05:22;;;;;;;14.77;12.45;;;;;;;23.70;61.72;100810.63;5120832;28;20032;-80
2023/09/14 04:08:17;;;;;;;20.02;14.10;;;;;;;23.67;61.28;100803.09;5117053;28;20031;-79
2023/09/14 04:11:12;;;;;;;16.00;13.88;;;;;;;23.67;61.46;100810.66;5120248;28;20039;-80
2023/09/14 04:14:06;;;;;;;20.55;15.45;;;;;;;23.64;61.40;100814.22;5123441;28;20040;-80
2023/09/14 04:17:01;;;;;;;20.38;14.82;;;;;;;23.62;61.53;100817.41;5126583;28;20040;-79
2023/09/14 04:19:53;;;;;;;19.67;12.63;;;;;;;23.58;61.49;100826.94;5122849;28;20043;-80
2023/09/14 04:22:48;;;;;;;16.42;11.85;;;;;;;23.59;61.54;100826.53;5125406;28;20039;-80
2023/09/14 04:25:44;;;;;;;15.43;12.25;;;;;;;23.60;61.53;100830.09;5125222;28;20031;-80
2023/09/14 04:28:39;;;;;;;17.23;13.30;;;;;;;23.59;61.74;100829.31;5119751;28;20040;-79
2023/09/14 04:31:33;;;;;;;14.85;12.57;;;;;;;23.58;61.76;100836.06;5120141;28;20039;-79
2023/09/14 04:34:25;;;;;;;16.13;13.95;;;;;;;23.54;62.32;100838.06;5123308;28;20043;-80
2023/09/14 04:37:20;;;;;;;15.68;13.70;;;;;;;23.54;62.29;100848.38;5126238;28;20031;-79
2023/09/14 04:40:14;;;;;;;15.48;12.45;;;;;;;23.52;62.34;100834.88;5123315;28;20031;-80
2023/09/14 04:43:09;;;;;;;18.75;12.07;;;;;;;23.52;62.14;100839.66;5121596;28;20039;-80
2023/09/14 04:46:03;;;;;;;15.85;12.05;;;;;;;23.49;62.21;100846.00;5119750;28;20044;-80
2023/09/14 04:48:58;;;;;;;18.05;12.63;;;;;;;23.49;62.13;100857.09;5115837;28;20416;-79
2023/09/14 04:51:50;;;;;;;15.85;12.40;;;;;;;23.48;61.83;100856.31;5116812;28;20031;-79
2023/09/14 04:54:46;;;;;;;16.42;11.85;;;;;;;23.48;61.57;100861.84;5123919;28;20494;-78
2023/09/14 04:57:40;;;;;;;20.35;12.63;;;;;;;23.47;62.20;100857.50;5120386;28;20498;-79
2023/09/14 05:00:35;;;;;;;19.02;12.27;;;;;;;23.44;62.12;100850.72;5125021;28;20040;-80
2023/09/14 05:03:30;;;;;;;17.50;11.73;;;;;;;23.46;62.07;100861.47;5123012;28;20410;-79
2023/09/14 05:06:24;;;;;;;18.92;11.60;;;;;;;23.45;62.31;100857.13;5127221;28;20486;-79
2023/09/14 05:09:19;;;;;;;19.10;11.88;;;;;;;23.42;62.04;100874.50;5121610;28;20039;-79
2023/09/14 05:12:13;;;;;;;13.50;11.00;;;;;;;23.42;62.02;100877.28;5121822;28;20043;-79
2023/09/14 05:15:09;;;;;;;15.43;11.60;;;;;;;23.40;62.03;100879.69;5123661;28;20036;-79
2023/09/14 05:18:04;;;;;;;30.35;11.95;;;;;;;23.38;61.74;100885.63;5118790;28;20032;-79
2023/09/14 05:20:59;;;;;;;18.17;11.15;;;;;;;23.34;62.14;100882.06;5114242;28;20487;-80
2023/09/14 05:23:54;;;;;;;15.85;10.75;;;;;;;23.35;61.83;100880.09;5103600;28;20036;-79
2023/09/14 05:26:48;;;;;;;16.17;11.13;;;;;;;23.34;61.56;100878.50;5120643;28;20035;-80
2023/09/14 05:29:43;;;;;;;17.60;14.20;;;;;;;23.33;61.64;100890.78;5121101;28;20039;-79
2023/09/14 05:32:38;;;;;;;19.13;12.30;;;;;;;23.33;61.89;100893.56;5110376;28;20506;-79
2023/09/14 05:35:33;;;;;;;24.20;12.07;;;;;;;23.31;62.21;100891.22;5122939;28;20047;-79
2023/09/14 05:38:28;;;;;;;24.10;13.23;;;;;;;23.32;62.02;100897.53;5119004;28;20048;-80
2023/09/14 05:41:20;;;;;;;18.80;12.43;;;;;;;23.29;62.19;100903.88;5115407;28;20648;-80
2023/09/14 05:44:14;;;;;;;21.75;12.45;;;;;;;23.31;62.15;100901.50;5119154;28;20028;-80
2023/09/14 05:47:09;;;;;;;20.10;11.95;;;;;;;23.30;62.37;100908.25;5117972;28;20031;-79
2023/09/14 05:50:01;;;;;;;20.17;15.43;;;;;;;23.29;62.55;100901.09;5116001;28;20044;-80
2023/09/14 05:52:56;;;;;;;19.98;12.70;;;;;;;23.28;62.94;100903.09;5119543;28;20040;-80
2023/09/14 05:55:50;;;;;;;24.50;14.40;;;;;;;23.27;63.12;100909.03;5117295;28;20048;-79
2023/09/14 05:58:45;;;;;;;22.67;14.48;;;;;;;23.29;63.31;100914.97;5120703;28;20047;-79
2023/09/14 06:01:37;;;;;;;21.35;13.70;;;;;;;23.31;63.66;100923.72;5118607;28;20501;-79
2023/09/14 06:04:32;;;;;;;17.00;13.30;;;;;;;23.32;63.54;100916.94;5115477;28;20036;-80
2023/09/14 06:07:26;;;;;;;18.55;12.95;;;;;;;23.33;63.83;100910.22;5119909;28;20035;-79
2023/09/14 06:10:21;;;;;;;19.65;14.73;;;;;;;23.33;64.13;100913.00;5117165;28;20035;-80
2023/09/14 06:13:16;;;;;;;24.52;16.08;;;;;;;23.45;65.42;100912.63;5124090;28;20039;-78
2023/09/14 06:16:11;;;;;;;20.92;15.70;;;;;;;23.53;65.41;100914.19;5122981;28;20039;-78
2023/09/14 06:19:03;;;;;;;;;;;;;;;23.43;66.46;100926.06;5118503;28;20032;-78
2023/09/14 06:21:58;;;;;;;26.55;16.42;;;;;;;23.50;66.47;100937.22;5120043;28;19912;-78
2023/09/14 06:24:52;;;;;;;28.05;16.23;;;;;;;23.57;66.61;100936.44;5114481;28;20031;-78
2023/09/14 06:27:47;;;;;;;25.00;16.02;;;;;;;24.00;64.83;100935.16;5125568;28;20035;-78
2023/09/14 06:30:43;;;;;;;25.00;17.42;;;;;;;24.15;64.14;100933.09;5123347;28;20040;-78
2023/09/14 06:33:38;;;;;;;23.95;17.20;;;;;;;24.05;64.12;100936.72;5120543;28;20032;-78
2023/09/14 06:36:33;;;;;;;26.23;16.85;;;;;;;24.36;63.52;100941.41;5123823;28;20048;-78
2023/09/14 06:39:25;;;;;;;23.92;16.08;;;;;;;24.82;62.01;100945.94;5122654;28;20490;-78
2023/09/14 06:42:19;;;;;;;25.73;15.35;;;;;;;24.96;61.57;100949.44;5121348;28;20414;-78
2023/09/14 06:45:13;;;;;;;20.35;14.88;;;;;;;25.24;61.23;100964.38;5121286;28;20490;-78
2023/09/14 06:48:08;;;;;;;25.80;13.63;;;;;;;25.40;60.48;100962.63;5114731;28;20043;-78
2023/09/14 06:51:00;;;;;;;23.40;15.50;;;;;;;25.34;60.42;100964.31;5117074;28;20031;-78
2023/09/14 06:53:55;;;;;;;20.83;14.93;;;;;;;25.51;60.13;100970.91;5120465;28;20044;-78
2023/09/14 06:56:50;;;;;;;29.77;14.05;;;;;;;25.91;59.07;100975.75;5122469;28;20043;-77
2023/09/14 06:59:44;;;;;;;19.55;14.50;;;;;;;26.23;58.01;100969.84;5122131;28;20047;-79
2023/09/14 07:02:39;;;;;;;21.13;14.48;;;;;;;26.10;57.91;100979.94;5119909;28;20039;-78
2023/09/14 07:05:33;;;;;;;20.48;14.07;;;;;;;25.44;60.09;100982.91;5123287;28;20036;-79
2023/09/14 07:08:28;;;;;;;26.50;14.50;;;;;;;25.39;59.81;100988.94;5118390;28;20036;-82
2023/09/14 07:11:20;;;;;;;17.25;15.10;;;;;;;24.98;61.10;100996.38;5122203;28;20039;-81
2023/09/14 07:14:15;;;;;;;20.55;14.70;;;;;;;25.07;60.83;100991.13;5119877;28;20656;-80
2023/09/14 07:17:10;;;;;;;17.77;13.75;;;;;;;25.36;60.09;101002.84;5114320;28;20043;-80
2023/09/14 07:20:04;;;;;;;17.10;13.85;;;;;;;25.37;59.37;100996.88;5125676;28;20398;-80
2023/09/14 07:22:58;;;;;;;36.53;14.70;;;;;;;25.74;58.30;101004.59;5123910;28;20043;-78
2023/09/14 07:25:53;;;;;;;19.30;13.93;;;;;;;25.49;59.11;101004.75;5127274;28;20035;-77
2023/09/14 07:28:48;;;;;;;14.68;13.05;;;;;;;25.51;58.97;101001.53;5123901;28;20487;-77
2023/09/14 07:31:42;;;;;;;21.27;14.93;;;;;;;24.76;61.55;101008.75;5122932;28;20035;-77
2023/09/14 07:34:34;;;;;;;;;;;;;;;23.62;64.62;101013.78;5126715;28;20043;-78
2023/09/14 07:37:29;;;;;;;25.35;18.30;;;;;;;23.32;65.59;101019.63;5124809;28;19915;-77
2023/09/14 07:40:24;;;;;;;23.35;18.30;;;;;;;23.88;63.81;101022.47;5120257;28;20044;-78
2023/09/14 07:43:18;;;;;;;22.75;17.88;;;;;;;24.80;60.71;101017.88;5125022;28;20035;-78
2023/09/14 07:46:13;;;;;;;29.90;16.67;;;;;;;24.73;61.19;101029.06;5118252;28;20035;-78
2023/09/14 07:49:07;;;;;;;27.95;16.75;;;;;;;25.54;59.27;101034.16;5122590;28;20032;-78
2023/09/14 07:52:00;;;;;;;;;;;;;;;25.38;59.62;101037.47;5124397;28;20044;-78
2023/09/14 07:54:54;;;;;;;22.33;15.40;;;;;;;25.09;59.53;101047.97;5118808;28;20306;-78
2023/09/14 07:57:49;;;;;;;19.70;14.80;;;;;;;25.40;58.27;101037.03;5117468;28;20478;-79
2023/09/14 08:00:43;;;;;;;23.75;16.10;;;;;;;26.19;56.33;101049.13;5122250;28;20040;-78
2023/09/14 08:03:36;;;;;;;32.67;18.92;;;;;;;25.23;59.42;101055.47;5124359;28;20032;-78
2023/09/14 08:06:30;;;;;;;23.88;18.75;;;;;;;24.73;60.97;101057.66;5124533;28;20040;-78
2023/09/14 08:09:25;;;;;;;26.30;17.42;;;;;;;25.37;59.62;101062.91;5121665;28;20048;-79
2023/09/14 08:12:17;;;;;;;;;;;;;;;25.81;58.65;101056.66;5122948;28;20032;-79
2023/09/14 08:15:12;;;;;;;24.83;17.83;;;;;;;28.35;50.93;101058.06;5123299;28;19919;-79
2023/09/14 08:18:04;;;;;;;;;;;;;;;27.47;53.12;101051.97;5127699;28;20031;-79
2023/09/14 08:20:58;;;;;;;23.00;16.77;;;;;;;30.76;44.12;101062.81;5122667;28;19916;-79
2023/09/14 08:23:53;;;;;;;21.63;15.80;;;;;;;30.25;46.79;101068.22;5118997;28;20031;-79
2023/09/14 08:26:47;;;;;;;25.70;18.38;;;;;;;32.49;40.39;101065.63;5125031;28;20417;-78
2023/09/14 08:29:42;;;;;;;24.38;15.38;;;;;;;35.99;34.42;101072.22;5123172;28;20043;-79
2023/09/14 08:32:37;;;;;;;18.23;13.07;;;;;;;37.95;30.98;101082.88;5120988;28;20047;-79
2023/09/14 08:35:31;;;;;;;24.60;13.55;;;;;;;38.80;28.96;101076.91;5124429;28;20039;-78
2023/09/14 08:38:26;;;;;;;21.80;14.60;;;;;;;38.83;28.66;101082.38;5112075;28;20036;-79
2023/09/14 08:41:31;;;;;;;19.70;13.85;;;;;;;39.30;27.87;101071.66;5118336;28;20035;-79
2023/09/14 08:44:26;;;;;;;21.17;16.42;;;;;;;38.79;29.17;101076.13;5113710;28;20032;-78
2023/09/14 08:47:21;;;;;;;19.30;15.25;;;;;;;34.61;34.35;101078.81;5114105;28;20032;-80
2023/09/14 08:50:16;;;;;;;21.55;15.77;;;;;;;30.49;43.76;101065.97;5114370;28;20031;-81
2023/09/14 08:53:12;;;;;;;17.48;13.80;;;;;;;28.83;48.13;101068.75;5109920;28;20406;-81
2023/09/14 08:56:06;;;;;;;16.30;13.57;;;;;;;27.81;51.39;101070.59;5115337;28;20043;-81
2023/09/14 08:59:02;;;;;;;24.40;14.35;;;;;;;27.35;52.50;101063.69;5118576;28;20032;-80
2023/09/14 09:01:57;;;;;;;23.30;17.75;;;;;;;26.90;54.99;101067.91;5099967;28;20048;-81
2023/09/14 09:04:49;;;;;;;26.17;18.90;;;;;;;26.74;55.61;101066.47;5102924;28;20032;-80
2023/09/14 09:07:44;;;;;;;23.35;17.05;;;;;;;26.72;55.37;101065.31;5119290;28;20522;-80
2023/09/14 09:10:40;;;;;;;28.15;19.27;;;;;;;26.26;57.02;101052.66;5122213;28;20043;-79
2023/09/14 09:13:45;;;;;;;24.30;18.38;;;;;;;26.28;56.80;101052.25;5118259;28;20502;-80
2023/09/14 09:16:40;;;;;;;30.65;20.88;;;;;;;26.16;57.46;101055.56;5123199;28;20406;-81
2023/09/14 09:19:32;;;;;;;;;;;;;;;26.03;58.20;101049.69;5120387;28;20039;-81
2023/09/14 09:22:26;;;;;;;26.95;16.45;;;;;;;25.98;58.40;101047.34;5118735;28;19912;-81
2023/09/14 09:25:21;;;;;;;16.73;13.75;;;;;;;25.93;58.23;101050.59;5121387;28;20031;-80
2023/09/14 09:28:15;;;;;;;25.50;15.13;;;;;;;25.92;58.29;101043.41;5119315;28;20039;-81
2023/09/14 09:31:10;;;;;;;26.40;16.75;;;;;;;25.85;58.51;101049.84;5122518;28;20039;-80
2023/09/14 09:34:02;;;;;;;;;;;;;;;25.98;57.78;101041.78;5121017;28;20498;-81
2023/09/14 09:37:00;;;;;;;21.77;14.98;;;;;;;25.72;58.67;101042.41;5117536;28;19915;-80
2023/09/14 09:39:52;;;;;;;16.65;14.40;;;;;;;25.69;59.01;101040.44;5120362;28;20040;-80
2023/09/14 09:42:46;;;;;;;14.65;13.02;;;;;;;25.79;58.58;101039.56;5119386;28;20040;-81
2023/09/14 09:45:44;;;;;;;27.58;17.40;;;;;;;25.81;58.92;101037.13;5123126;28;20036;-81
2023/09/14 09:48:39;;;;;;;22.23;13.68;;;;;;;25.83;58.54;101024.41;5120808;28;20044;-81
2023/09/14 09:51:33;;;;;;;26.20;17.80;;;;;;;25.87;58.70;101016.00;5118255;28;20220;-81
2023/09/14 09:54:28;;;;;;;24.15;17.17;;;;;;;25.89;58.40;101019.16;5121407;28;20486;-80
2023/09/14 09:57:23;;;;;;;19.70;13.75;;;;;;;25.78;58.54;101010.91;5119368;28;20040;-81
2023/09/14 10:00:19;;;;;;;21.90;15.48;;;;;;;25.85;58.53;101016.41;5118213;27;20039;-82
2023/09/14 10:03:17;;;;;;;27.63;21.45;;;;;;;25.94;59.63;101015.94;5108637;28;20044;-82
2023/09/14 10:06:11;;;;;;;20.80;14.50;;;;;;;25.81;58.81;101012.06;5109980;28;20410;-82
2023/09/14 10:09:09;;;;;;;18.10;14.85;;;;;;;25.78;59.17;101007.31;5115776;27;20640;-82
2023/09/14 10:12:04;;;;;;;20.50;16.35;;;;;;;25.64;59.58;101011.03;5118465;28;20035;-82
2023/09/14 10:15:03;;;;;;;30.00;18.70;;;;;;;25.85;58.43;100999.69;5112432;28;20032;-82
2023/09/14 10:17:58;;;;;;;21.35;15.65;;;;;;;25.84;58.54;100995.34;5104163;28;20506;-82
2023/09/14 10:20:53;;;;;;;34.63;19.35;;;;;;;25.88;57.81;100990.50;5112588;28;20031;-82
2023/09/14 10:23:49;;;;;;;29.63;18.90;;;;;;;25.99;57.73;100984.84;5118011;28;20043;-82
2023/09/14 10:26:45;;;;;;;27.55;17.60;;;;;;;26.04;57.89;100984.38;5098798;28;20032;-82
2023/09/14 10:29:43;;;;;;;24.42;18.73;;;;;;;26.04;57.77;100978.81;5116198;27;20044;-82
2023/09/14 10:32:39;;;;;;;26.35;18.92;;;;;;;26.17;56.87;100979.84;5112660;28;20047;-82
2023/09/14 10:35:35;;;;;;;27.00;20.25;;;;;;;26.34;55.94;100978.09;5114691;28;20043;-82
2023/09/14 10:38:30;;;;;;;25.50;19.75;;;;;;;26.38;55.82;100976.84;5119823;28;20036;-82
2023/09/14 10:41:26;;;;;;;27.77;19.77;;;;;;;26.37;55.66;100971.69;5101252;28;20035;-82
2023/09/14 10:44:21;;;;;;;23.08;16.17;;;;;;;26.24;56.12;100976.22;5100452;28;20048;-81
2023/09/14 10:47:20;;;;;;;26.67;19.58;;;;;;;26.25;55.94;100975.81;5100034;28;20044;-82
2023/09/14 10:50:14;;;;;;;18.38;14.60;;;;;;;26.18;56.45;100978.66;5111944;27;20036;-83
2023/09/14 10:53:06;;;;;;;25.67;15.70;;;;;;;26.38;55.75;100970.47;5107762;28;20035;-82
2023/09/14 10:56:00;;;;;;;20.98;13.93;;;;;;;26.27;55.96;100965.03;5108781;28;20037;-82
2023/09/14 10:58:58;;;;;;;25.63;15.48;;;;;;;26.31;56.02;100965.00;5113273;27;20035;-82
2023/09/14 11:01:50;;;;;;;15.77;13.52;;;;;;;26.18;56.47;100961.13;5112177;28;20031;-83
2023/09/14 11:05:18;;;;;;;17.50;15.18;;;;;;;26.04;57.12;100961.28;5116015;28;20418;-82
2023/09/14 11:08:10;;;;;;;15.38;13.13;;;;;;;25.97;57.29;100956.56;5108213;28;20032;-82
2023/09/14 11:11:07;;;;;;;18.38;14.63;;;;;;;25.86;58.42;100956.69;5116047;28;20035;-83
2023/09/14 11:14:02;;;;;;;19.00;13.93;;;;;;;25.85;58.25;100962.69;5112168;28;20493;-82
2023/09/14 11:16:58;;;;;;;18.52;13.80;;;;;;;25.98;57.36;100950.59;5096971;28;20499;-81
2023/09/14 11:19:52;;;;;;;23.70;12.95;;;;;;;25.87;57.81;100952.69;5116802;27;20047;-83
2023/09/14 11:22:47;;;;;;;22.13;17.90;;;;;;;26.00;57.25;100955.75;5116609;28;20494;-82
2023/09/14 11:25:40;;;;;;;21.30;12.95;;;;;;;25.96;57.50;100944.63;5119007;28;20036;-83
2023/09/14 11:28:34;;;;;;;14.38;12.68;;;;;;;26.06;56.98;100944.94;5114002;28;20414;-82
2023/09/14 11:31:35;;;;;;;17.70;13.80;;;;;;;26.12;57.17;100949.63;5108031;28;20031;-83
2023/09/14 11:34:31;;;;;;;18.55;14.63;;;;;;;25.94;57.35;100944.28;5115896;28;20035;-83
2023/09/14 11:37:23;;;;;;;23.13;15.73;;;;;;;26.01;56.78;100950.97;5107603;27;20027;-83
2023/09/14 11:40:18;;;;;;;18.40;13.77;;;;;;;26.15;56.52;100965.53;5118785;28;20032;-82
2023/09/14 11:43:20;;;;;;;12.32;9.20;;;;;;;26.08;55.97;100965.63;5109322;27;20414;-82
2023/09/14 11:46:17;;;;;;;15.23;9.80;;;;;;;25.95;56.74;100970.94;5107852;28;20043;-81
2023/09/14 11:49:10;;;;;;;10.27;7.60;;;;;;;25.62;56.55;100965.28;5112431;28;20043;-81
2023/09/14 11:52:06;;;;;;;6.93;3.78;;;;;;;25.24;55.02;100967.97;5116915;28;20046;-81
2023/09/14 11:54:59;;;;;;;10.90;4.57;;;;;;;24.90;56.11;100958.63;5120054;28;20046;-81
2023/09/14 11:57:54;;;;;;;7.72;4.03;;;;;;;24.56;56.92;100975.06;5118690;28;20051;-81
2023/09/14 12:00:51;;;;;;;5.75;3.28;;;;;;;24.16;58.80;100968.06;5120768;28;20062;-81
2023/09/14 12:03:44;;;;;;;8.40;2.85;;;;;;;24.10;59.54;100975.22;5120218;28;20051;-81
2023/09/14 12:06:40;;;;;;;2.00;1.67;;;;;;;24.07;57.13;100956.56;5117890;28;20043;-81
2023/09/14 12:09:41;;;;;;;5.07;1.98;;;;;;;24.02;57.10;100948.66;5118823;28;20533;-81
2023/09/14 12:12:35;;;;;;;3.15;1.50;;;;;;;24.19;57.53;100958.94;5110123;28;20043;-81
2023/09/14 12:15:29;;;;;;;1.90;1.67;;;;;;;24.42;57.83;100953.69;5120109;28;20054;-81
2023/09/14 12:18:36;;;;;;;4.55;1.73;;;;;;;24.65;57.53;100961.53;5117453;28;20054;-79
2023/09/14 12:21:30;;;;;;;6.25;2.22;;;;;;;24.94;57.61;100965.00;5115662;28;20054;-81
2023/09/14 12:24:25;;;;;;;6.50;3.03;;;;;;;25.06;57.65;100956.16;5117896;27;20039;-81
2023/09/14 12:27:21;;;;;;;5.55;2.10;;;;;;;25.17;58.55;100951.31;5120165;28;20039;-81
2023/09/14 12:30:13;;;;;;;4.07;2.33;;;;;;;25.28;60.19;100949.22;5119621;28;20043;-81
2023/09/14 12:33:09;;;;;;;6.53;2.33;;;;;;;25.23;58.76;100951.66;5100837;28;20505;-81
2023/09/14 12:36:04;;;;;;;6.68;2.88;;;;;;;25.38;59.41;100953.13;5099345;28;20047;-81
2023/09/14 12:38:56;;;;;;;4.60;2.25;;;;;;;25.45;60.55;100942.72;5110779;28;20574;-81
2023/09/14 12:41:52;;;;;;;4.50;2.25;;;;;;;25.52;60.28;100942.66;5099940;28;20106;-82
2023/09/14 12:44:47;;;;;;;3.42;1.67;;;;;;;25.62;58.74;100943.78;5116745;28;20043;-82
2023/09/14 12:47:41;;;;;;;9.32;2.25;;;;;;;25.64;60.48;100943.38;5118997;27;20038;-81
2023/09/14 12:50:35;;;;;;;4.70;1.90;;;;;;;25.66;60.31;100950.13;5125146;27;20046;-81
2023/09/14 12:53:28;;;;;;;;;;;;;;;25.72;60.08;100948.47;5122407;28;20039;-80
2023/09/14 12:56:25;;;;;;;6.25;2.67;;;;;;;25.70;60.94;100950.09;5113250;28;19916;-80
2023/09/14 12:59:17;;;;;;;4.78;2.10;;;;;;;25.76;59.27;100951.22;5119299;27;20074;-81
2023/09/14 13:02:16;;;;;;;2.03;1.73;;;;;;;25.90;55.19;100951.09;5111221;28;20517;-81
2023/09/14 13:05:12;;;;;;;5.32;2.20;;;;;;;26.00;57.86;100950.19;5114465;28;20058;-80
2023/09/14 13:08:07;;;;;;;2.58;2.38;;;;;;;25.96;57.02;100939.06;5120214;28;20059;-81
2023/09/14 13:10:59;;;;;;;3.55;2.33;;;;;;;25.91;58.65;100939.50;5110106;28;20043;-81
2023/09/14 13:13:52;;;;;;;2.03;1.83;;;;;;;25.90;58.68;100939.94;5118664;28;20043;-82
2023/09/14 13:16:56;;;;;;;13.93;4.05;;;;;;;25.97;57.69;100937.06;5118703;28;20039;-82
2023/09/14 13:19:51;;;;;;;65.82;14.27;;;;;;;25.92;58.42;100934.72;5116293;28;20040;-80
2023/09/14 13:22:46;;;;;;;25.90;6.60;;;;;;;26.00;57.92;100935.47;5121357;28;20419;-81
2023/09/14 13:25:41;;;;;;;29.40;7.32;;;;;;;25.99;56.72;100923.50;5119099;28;20268;-81